EW9774 Weather Reports


Display with metric or nautical units.
time (UTC)temp
F
wind
direction
speed
MPH
gust
MPH
rain 1hr
in
rain 24hr
in
rain mn
in
humidity
%
barometer
mb
20210614113029 55 282 1.0 0.0 0.00 0.49 0.10 98 1016.1
20210614111529 55 292 1.0 0.0 0.00 0.49 0.10 98 1016.1
20210614110031 56 292 2.0 0.0 0.00 0.49 0.10 98 1016.1
20210614104530 56 202 0.0 0.0 0.00 0.49 0.10 98 1016.1
20210614103028 57 202 0.0 0.0 0.00 0.49 0.10 98 1016.1
20210614101533 57 198 2.0 0.0 0.00 0.49 0.10 98 1016.1
20210614100023 57 275 1.0 0.0 0.01 0.49 0.10 98 1016.1
20210614094533 57 292 2.0 0.0 0.01 0.49 0.10 98 1015.8
20210614093026 57 322 1.0 0.0 0.01 0.49 0.10 98 1015.8
20210614091526 57 282 3.0 0.0 0.04 0.49 0.10 98 1015.8
20210614090059 57 292 1.0 0.0 0.04 0.49 0.09 98 1015.8
20210614084527 58 256 1.0 0.0 0.04 0.49 0.09 97 1015.8
20210614081530 58 287 3.0 0.0 0.01 0.47 0.06 97 1015.4
20210614080032 58 285 1.0 0.0 0.01 0.46 0.05 97 1015.1
20210614074538 58 209 2.0 0.0 0.05 0.46 0.05 97 1015.4
20210614073026 58 292 0.0 0.0 0.06 0.46 0.05 97 1015.1
20210614071530 58 292 0.0 0.0 0.08 0.46 0.05 97 1015.4
20210614070038 58 263 1.0 0.0 0.09 0.45 0.04 97 1015.8
20210614064527 58 181 1.0 0.0 0.08 0.41 0.41 97 1015.8
20210614063024 59 155 2.0 0.0 0.08 0.40 0.40 97 1015.4
20210614061527 59 151 1.0 0.0 0.07 0.38 0.38 97 1015.4
20210614060028 59 281 2.0 0.0 0.05 0.36 0.36 97 1015.4
20210614054527 59 277 4.0 0.0 0.03 0.33 0.33 97 1015.4
20210614053025 59 273 2.0 0.0 0.02 0.32 0.32 97 1015.4
20210614051523 59 202 0.0 0.0 0.01 0.31 0.31 97 1015.1
20210614050026 60 194 0.0 0.0 0.01 0.31 0.31 97 1015.1
20210614044527 60 199 1.0 0.0 0.01 0.30 0.30 97 1015.1
20210614043028 60 172 1.0 0.0 0.03 0.30 0.30 96 1014.7
20210614041525 60 135 0.0 0.0 0.05 0.30 0.30 96 1014.7
20210614040031 60 125 2.0 0.0 0.05 0.30 0.30 96 1014.7
20210614034534 60 327 1.0 0.0 0.07 0.28 0.28 96 1014.7
20210614033028 60 159 1.0 0.0 0.12 0.27 0.27 95 1014.7
20210614031535 61 101 1.0 0.0 0.11 0.25 0.25 95 1014.4
20210614030030 61 109 1.0 0.0 0.11 0.25 0.25 95 1014.4
20210614024618 62 116 2.0 0.0 0.09 0.22 0.22 94 1014.4
20210614023029 62 261 1.0 0.0 0.03 0.15 0.15 93 1013.7
20210614021530 62 10 0.0 0.0 0.02 0.14 0.14 92 1013.7
20210614020027 62 237 0.0 0.0 0.03 0.14 0.14 90 1013.7
20210614014527 63 298 2.0 0.0 0.07 0.13 0.13 87 1013.7
20210614013039 63 325 0.0 0.0 0.09 0.12 0.12 86 1013.7
20210614011530 63 321 0.0 0.0 0.09 0.12 0.12 85 1013.7
20210614010024 64 296 0.0 0.0 0.08 0.11 0.11 81 1013.4
20210614004529 65 247 4.0 0.0 0.03 0.06 0.06 74 1013.4
20210614003026 66 299 3.0 0.0 0.00 0.03 0.03 71 1012.7
20210614001531 68 293 3.0 0.0 0.00 0.03 0.03 68 1013.0
20210614000028 68 295 7.0 0.0 0.00 0.03 0.03 68 1012.7
20210613234556 68 313 4.0 0.0 0.00 0.03 0.03 68 1012.7
20210613233032 68 293 4.0 0.0 0.00 0.03 0.03 69 1012.3
20210613231528 69 300 3.0 0.0 0.00 0.03 0.03 69 1012.0
20210613230028 69 296 8.0 0.0 0.00 0.03 0.03 66 1011.6
20210613224525 71 297 7.0 0.0 0.01 0.03 0.03 63 1011.6
20210613223029 72 294 7.0 0.0 0.01 0.03 0.03 60 1011.3
20210613221532 75 300 6.0 0.0 0.01 0.03 0.03 59 1010.9
20210613220026 76 300 7.0 0.0 0.01 0.03 0.03 61 1010.6
20210613214528 76 299 6.0 0.0 0.00 0.02 0.02 59 1010.9
20210613213031 76 310 4.0 0.0 0.00 0.02 0.02 60 1010.6
20210613211527 75 316 5.0 0.0 0.00 0.02 0.02 60 1010.9
20210613210027 74 347 4.0 0.0 0.00 0.02 0.02 61 1011.3
20210613204535 73 25 4.0 0.0 0.00 0.02 0.02 61 1011.3
20210613203033 73 354 4.0 0.0 0.00 0.02 0.02 59 1011.6
20210613201528 73 5 4.0 0.0 0.00 0.02 0.02 60 1011.6
20210613200028 73 18 3.0 0.0 0.00 0.02 0.02 63 1012.0
20210613194527 73 186 2.0 0.0 0.00 0.02 0.02 62 1012.0
20210613193027 73 141 2.0 0.0 0.00 0.02 0.02 61 1012.3
20210613191524 73 70 2.0 0.0 0.00 0.02 0.02 63 1012.7
20210613190028 71 50 1.0 0.0 0.00 0.02 0.02 65 1012.7
20210613184529 71 326 0.0 0.0 0.00 0.02 0.02 64 1013.0
20210613183030 70 282 1.0 0.0 0.00 0.02 0.02 68 1013.4
20210613181523 69 16 2.0 0.0 0.00 0.02 0.02 72 1013.4
20210613180031 67 144 1.0 0.0 0.00 0.02 0.02 75 1013.4
20210613174527 66 93 1.0 0.0 0.00 0.02 0.02 82 1013.7
20210613173024 64 37 1.0 0.0 0.00 0.02 0.02 86 1014.1
20210613171530 63 47 0.0 0.0 0.00 0.02 0.02 88 1014.4
20210613170024 63 151 1.0 0.0 0.00 0.02 0.02 89 1014.4
20210613164527 62 142 2.0 0.0 0.00 0.02 0.02 91 1014.7
20210613163027 62 183 2.0 0.0 0.00 0.02 0.02 92 1015.1
20210613161529 62 76 0.0 0.0 0.00 0.02 0.02 94 1015.1
20210613160027 61 294 1.0 0.0 0.00 0.02 0.02 95 1015.1
20210613154529 61 292 0.0 0.0 0.00 0.02 0.02 95 1015.1
20210613153027 61 223 0.0 0.0 0.00 0.02 0.02 95 1014.7
20210613151528 61 275 0.0 0.0 0.00 0.02 0.02 95 1014.7
20210613150027 61 292 0.0 0.0 0.00 0.02 0.02 96 1014.4
20210613144529 61 292 0.0 0.0 0.00 0.02 0.02 96 1014.4
20210613143025 60 292 0.0 0.0 0.00 0.02 0.02 96 1014.1
20210613141556 60 292 1.0 0.0 0.00 0.02 0.02 97 1014.1
20210613140025 59 267 2.0 0.0 0.00 0.02 0.02 97 1014.1
20210613134526 59 202 1.0 0.0 0.00 0.02 0.02 97 1013.7
20210613133029 58 202 0.0 0.0 0.00 0.02 0.02 97 1013.7
20210613131528 58 197 0.0 0.0 0.00 0.02 0.02 97 1013.4
20210613130029 58 180 1.0 0.0 0.00 0.02 0.02 96 1013.4
20210613124534 58 197 0.0 0.0 0.00 0.02 0.02 96 1013.4
20210613123027 58 194 1.0 0.0 0.00 0.02 0.02 96 1013.4
20210613121529 58 136 1.0 0.0 0.00 0.02 0.02 96 1013.4
20210613120024 59 157 1.0 0.0 0.00 0.02 0.02 96 1013.4
20210613114529 59 59 0.0 0.0 0.00 0.02 0.02 95 1013.4